Meteo Giornale » Osservazioni meteo Stati Uniti (USA) » Apalachicola
ore: 01:53 - Osservazioni Meteo Apalachicola
Lat. 29° 43' N Lon. 85° 1' W Alt. 6 metri s.l.m.
26 °C
Molto Nuvoloso
Temp. 24 Ore
24 °C
31 °C
Est/Nord-Est
7.4 Km/h
Dew point 24 °C
Umidità 88 %
Visibilità 10 Km
Il sole sorge alle ore 07:17
Il sole tramonta alle ore 20:02
| Data e Ora | Cielo e Fenomeni | T °C | DP °C | Um. % | Pres. hPa | Vis. km | Vento km/h | |
|---|---|---|---|---|---|---|---|---|
| Oggi h: 01:53 | Molto Nuvoloso | 26 | 24 | 88 | 1017 | 10 | E/NE 7.4 | |
| Oggi h: 00:53 | Sereno | 27 | 25 | 88 | 1017 | 10 | E/NE 9.3 | |
| Ieri h: 23:53 | Sereno | 26 | 24 | 88 | 1017 | 10 | N 0 | |
| Ieri h: 22:53 | Sereno | 26 | 24 | 88 | 1017 | 10 | N 0 | |
| Ieri h: 21:53 | Nuvoloso | 26 | 24 | 88 | 1017 | 10 | N 0 | |
| Ieri h: 20:53 | Sereno | 27 | 24 | 83 | 1016 | 10 | N 0 | |
| Ieri h: 19:53 | Poco Nuvoloso | 29 | 24 | 74 | 1016 | 10 | N 5.5 | |
| Ieri h: 18:53 | Sereno | 29 | 24 | 74 | 1016 | 10 | S/SE 9.3 | |
| Ieri h: 17:53 | Coperto | 31 | 24 | 66 | 1016 | 10 | S/SE 9.3 | |
| Ieri h: 17:15 | Nuvoloso | 31 | 23 | 62 | 1016 | 10 | S/SE 13 | |
| Ieri h: 17:00 | Temporale | 31 | 24 | 66 | 1016 | 10 | S/SE 14.8 | |
| Ieri h: 16:53 | Sereno | 31 | 24 | 66 | 1016 | 10 | S/SE 16.7 | |
| Ieri h: 16:23 | Temporale nelle vicinanze | 31 | 24 | 66 | 1016 | 10 | SE 18.5 | |
| Ieri h: 15:53 | Sereno | 31 | 24 | 66 | 1016 | 10 | S/SE 18.5 | |
| Ieri h: 14:53 | Sereno | 31 | 24 | 66 | 1017 | 10 | E 13 | |
| Ieri h: 14:05 | Sereno | 30 | 25 | 74 | 1018 | 10 | SE 22.2 | |
| Ieri h: 13:53 | Temporale nelle vicinanze | 30 | 25 | 74 | 1018 | 10 | E/SE 18.5 | |
| Ieri h: 13:50 | Temporale nelle vicinanze | 30 | 24 | 70 | 1018 | 10 | E/SE 18.5 | |
| Ieri h: 12:53 | Poco Nuvoloso | 31 | 26 | 74 | 1018 | 10 | E/SE 18.5 | |
| Ieri h: 12:41 | Temporale nelle vicinanze | 30 | 26 | 79 | 1018 | 10 | E/SE 18.5 | |
| Ieri h: 11:53 | Sereno | 29 | 24 | 74 | 1018 | 10 | E 13 | |
| Ieri h: 10:53 | Poco Nuvoloso | 29 | 26 | 83 | 1018 | 10 | E 11.1 | |
| Ieri h: 09:53 | Sereno | 28 | 25 | 83 | 1018 | 10 | E/NE 11.1 | |
| Ieri h: 08:53 | Sereno | 25 | 24 | 94 | 1018 | 10 | E/NE 9.3 | |
| Ieri h: 07:53 | Sereno | 24 | 24 | 100 | 1017 | 10 | NE 9.3 | |
| Ieri h: 06:53 | Poco Nuvoloso | 24 | 24 | 100 | 1016 | 10 | N 0 | |
| Ieri h: 05:53 | Nuvoloso | 25 | 24 | 94 | 1016 | 10 | N 0 | |
| Ieri h: 05:49 | Nuvoloso | 25 | 23 | 88 | 1016 | 10 | N 0 | |
| Ieri h: 05:30 | Molto Nuvoloso | 24 | 24 | 100 | 1016 | 10 | N 9.3 | |
| Ieri h: 04:53 | Nuvoloso | 24 | 24 | 100 | 1016 | 10 | NE 7.4 | |
| Ieri h: 04:45 | Molto Nuvoloso | 24 | 24 | 100 | 1016 | 10 | N 5.5 | |
| Ieri h: 04:18 | Foschia | 24 | 23 | 94 | 1016 | 6 | N 5.5 | |
| Ieri h: 04:08 | Foschia | 24 | 24 | 100 | 1016 | 2 | E 16.7 | |
| Ieri h: 03:53 | Sereno | 24 | 23 | 94 | 1016 | 10 | NE 9.3 | |
| Ieri h: 02:53 | Poco Nuvoloso | 24 | 23 | 94 | 1016 | 10 | E/NE 7.4 | |



